Time;durP1;ratioP1;P1;durP2;ratioP2;P2;SDS_P1;SDS_P2;PMS_P1;PMS_P2;Temp;Humidity;BMP_temperature;BMP_pressure;BME280_temperature;BME280_humidity;BME280_pressure;Samples;Min_cycle;Max_cycle;Signal;HPM_P1;HPM_P2
2022/05/05 00:00:48;;;;;;;15.30;13.87;;;14.30;99.90;;;;;;10373666;28;20228;-71
2022/05/05 00:05:51;;;;;;;15.23;13.33;;;14.30;99.90;;;;;;10350709;28;20603;-71
2022/05/05 00:16:11;;;;;;;15.97;14.40;;;14.30;99.90;;;;;;10378732;28;20226;-70
2022/05/05 00:21:11;;;;;;;17.03;15.33;;;14.30;99.90;;;;;;10370300;28;20319;-69
2022/05/05 00:26:12;;;;;;;16.17;14.57;;;14.20;99.90;;;;;;10363572;28;20232;-70
2022/05/05 00:31:13;;;;;;;16.97;15.23;;;14.10;99.90;;;;;;10349058;28;20322;-69
2022/05/05 00:36:13;;;;;;;16.40;14.87;;;14.10;99.90;;;;;;10365734;28;20217;-70
2022/05/05 00:41:14;;;;;;;16.33;14.73;;;14.00;99.90;;;;;;10362282;28;20221;-69
2022/05/05 00:46:15;;;;;;;14.03;12.73;;;14.00;99.90;;;;;;10365910;28;20288;-70
2022/05/05 00:51:15;;;;;;;14.93;13.43;;;14.00;99.90;;;;;;10374448;28;20678;-70
2022/05/05 00:56:17;;;;;;;13.73;12.53;;;14.00;99.90;;;;;;10361247;28;20700;-70
2022/05/05 01:01:19;;;;;;;13.40;12.20;;;14.00;99.90;;;;;;10367732;28;20252;-70
2022/05/05 01:06:20;;;;;;;16.97;15.30;;;14.00;99.90;;;;;;10362767;28;20280;-70
2022/05/05 01:11:20;;;;;;;14.03;12.63;;;14.00;99.90;;;;;;10344500;28;20257;-71
2022/05/05 01:16:23;;;;;;;18.43;14.50;;;14.00;99.90;;;;;;10356372;28;20302;-70
2022/05/05 01:21:23;;;;;;;16.73;15.20;;;14.00;99.90;;;;;;10376704;28;20223;-70
2022/05/05 01:31:44;;;;;;;15.17;13.53;;;14.00;99.90;;;;;;10362335;28;20241;-71
2022/05/05 01:36:44;;;;;;;15.50;13.70;;;14.00;99.90;;;;;;10346189;28;20588;-70
2022/05/05 01:41:46;;;;;;;14.40;12.93;;;13.90;99.90;;;;;;10363695;28;20232;-72
2022/05/05 01:46:47;;;;;;;14.20;12.57;;;13.90;99.90;;;;;;10363659;28;20217;-72
2022/05/05 01:51:48;;;;;;;14.90;13.33;;;13.70;99.90;;;;;;10367536;28;20312;-71
2022/05/05 01:56:48;;;;;;;14.43;13.03;;;13.80;99.90;;;;;;10349295;28;20309;-71
2022/05/05 02:01:49;;;;;;;15.67;14.07;;;13.90;99.90;;;;;;10366901;28;20660;-71
2022/05/05 02:06:50;;;;;;;15.93;14.33;;;13.90;99.90;;;;;;10369057;28;20228;-71
2022/05/05 02:11:50;;;;;;;16.20;13.03;;;13.90;99.90;;;;;;10363271;28;20296;-72
2022/05/05 02:16:51;;;;;;;15.27;13.73;;;13.90;99.90;;;;;;10360300;28;20220;-71
2022/05/05 02:21:52;;;;;;;15.07;13.57;;;13.80;99.90;;;;;;10372939;28;20309;-71
2022/05/05 02:26:52;;;;;;;22.03;18.13;;;13.80;99.90;;;;;;10358810;28;20222;-71
2022/05/05 02:31:53;;;;;;;24.20;20.80;;;13.80;99.90;;;;;;10372316;28;20229;-71
2022/05/05 02:42:13;;;;;;;24.63;22.23;;;13.80;99.90;;;;;;10362287;28;20221;-70
2022/05/05 02:47:14;;;;;;;25.50;22.57;;;13.80;99.90;;;;;;10352116;28;20793;-72
2022/05/05 02:52:14;;;;;;;23.70;21.30;;;13.60;99.90;;;;;;10366573;28;20318;-70
2022/05/05 02:57:15;;;;;;;24.83;22.43;;;13.60;99.90;;;;;;10363088;28;20221;-72
2022/05/05 03:02:19;;;;;;;24.43;22.10;;;13.60;99.90;;;;;;10358617;28;20455;-71
2022/05/05 03:07:22;;;;;;;24.87;22.27;;;13.60;99.90;;;;;;10364651;28;20222;-71
2022/05/05 03:12:22;;;;;;;23.60;21.33;;;13.60;99.90;;;;;;10370940;28;20236;-72
2022/05/05 03:17:26;;;;;;;23.53;21.07;;;13.60;99.90;;;;;;10369419;28;20213;-70
2022/05/05 03:22:30;;;;;;;20.87;18.80;;;13.70;99.90;;;;;;10352085;28;20226;-71
2022/05/05 03:27:31;;;;;;;21.77;18.93;;;13.60;99.90;;;;;;10368155;28;20221;-71
2022/05/05 03:32:33;;;;;;;21.43;19.33;;;13.70;99.90;;;;;;10360903;28;20244;-71
2022/05/05 03:37:33;;;;;;;20.77;18.63;;;13.80;99.90;;;;;;10361621;28;20255;-71
2022/05/05 03:42:34;;;;;;;19.40;17.50;;;13.80;99.90;;;;;;10361808;28;20224;-70
2022/05/05 03:47:35;;;;;;;17.33;15.57;;;13.80;99.90;;;;;;10344912;28;20244;-70
2022/05/05 03:52:35;;;;;;;19.53;17.43;;;13.80;99.90;;;;;;10343650;28;20233;-71
2022/05/05 03:57:36;;;;;;;19.87;17.97;;;13.90;99.90;;;;;;10365973;28;20223;-72
2022/05/05 04:02:36;;;;;;;19.67;17.67;;;13.90;99.90;;;;;;10367133;28;20650;-72
2022/05/05 04:07:38;;;;;;;20.87;18.83;;;13.90;99.90;;;;;;10337516;28;20680;-72
2022/05/05 04:12:39;;;;;;;21.00;18.70;;;14.00;99.90;;;;;;10367012;28;20221;-70
2022/05/05 04:17:40;;;;;;;21.50;19.27;;;13.90;99.90;;;;;;10357641;28;20606;-73
2022/05/05 04:22:41;;;;;;;22.63;20.43;;;13.80;99.90;;;;;;10346075;28;20247;-71
2022/05/05 04:27:43;;;;;;;23.87;21.43;;;13.80;99.90;;;;;;10368371;28;20252;-71
2022/05/05 04:32:45;;;;;;;19.50;17.50;;;13.80;99.90;;;;;;10366341;28;20264;-71
2022/05/05 04:37:45;;;;;;;19.63;16.70;;;13.80;99.90;;;;;;10367468;28;20228;-71
2022/05/05 04:42:46;;;;;;;17.80;15.30;;;13.80;99.90;;;;;;10349991;28;20217;-71
2022/05/05 04:47:47;;;;;;;17.57;15.20;;;13.70;99.90;;;;;;10373479;28;20215;-72
2022/05/05 04:52:48;;;;;;;16.63;14.93;;;13.70;99.90;;;;;;10369679;28;20283;-72
2022/05/05 04:57:48;;;;;;;17.83;15.93;;;13.70;99.90;;;;;;10358331;28;20406;-72
2022/05/05 05:02:49;;;;;;;18.07;14.97;;;13.70;99.90;;;;;;10382142;28;20317;-71
2022/05/05 05:07:50;;;;;;;18.00;13.63;;;13.70;99.90;;;;;;10363104;28;20217;-69
2022/05/05 05:12:51;;;;;;;16.73;14.07;;;13.70;99.90;;;;;;10381590;28;20231;-70
2022/05/05 05:17:51;;;;;;;15.50;13.37;;;13.70;99.90;;;;;;10358019;28;20694;-71
2022/05/05 05:22:52;;;;;;;21.50;15.50;;;13.70;99.90;;;;;;10371729;28;20219;-72
2022/05/05 05:27:53;;;;;;;19.60;14.87;;;13.80;99.90;;;;;;10368859;28;20236;-71
2022/05/05 05:32:57;;;;;;;17.70;13.60;;;13.80;99.90;;;;;;10373309;28;20260;-71
2022/05/05 05:37:57;;;;;;;17.70;13.70;;;13.80;99.90;;;;;;10369029;28;20236;-73
2022/05/05 05:42:58;;;;;;;13.60;12.17;;;13.80;99.90;;;;;;10351632;28;20225;-72
2022/05/05 05:47:59;;;;;;;14.97;13.50;;;13.80;99.90;;;;;;10365612;28;20610;-71
2022/05/05 05:53:00;;;;;;;16.70;14.37;;;13.90;99.90;;;;;;10365054;28;20305;-70
2022/05/05 05:58:00;;;;;;;16.43;12.47;;;14.00;99.90;;;;;;10365595;28;20237;-70
2022/05/05 06:08:22;;;;;;;15.03;11.70;;;14.10;99.90;;;;;;10358488;28;20220;-71
2022/05/05 06:13:23;;;;;;;15.03;12.67;;;14.10;99.90;;;;;;10343917;28;20240;-72
2022/05/05 06:18:24;;;;;;;16.57;13.03;;;14.10;99.90;;;;;;10352246;28;20231;-71
2022/05/05 06:23:24;;;;;;;19.80;13.10;;;14.00;99.90;;;;;;10351738;28;20224;-70
2022/05/05 06:28:28;;;;;;;18.67;12.67;;;14.00;99.90;;;;;;10359755;28;20303;-69
2022/05/05 06:33:28;;;;;;;16.30;12.40;;;13.90;99.90;;;;;;10362012;28;20234;-70
2022/05/05 06:38:29;;;;;;;20.57;12.50;;;13.90;99.90;;;;;;10367255;28;20748;-70
2022/05/05 06:43:30;;;;;;;18.63;13.00;;;14.00;99.90;;;;;;10359770;28;20217;-70
2022/05/05 06:48:31;;;;;;;16.07;12.23;;;14.00;99.90;;;;;;10365834;28;20267;-70
2022/05/05 06:53:31;;;;;;;17.97;11.50;;;14.00;99.90;;;;;;10364796;28;20652;-71
2022/05/05 06:58:32;;;;;;;20.20;12.03;;;14.10;99.90;;;;;;10366922;28;20264;-70
2022/05/05 07:03:32;;;;;;;18.17;11.47;;;14.30;99.90;;;;;;10366238;28;20221;-71
2022/05/05 07:13:56;;;;;;;13.57;9.80;;;14.70;99.90;;;;;;10342390;28;20227;-71
2022/05/05 07:18:57;;;;;;;13.53;10.47;;;14.90;99.90;;;;;;10355732;28;20222;-71
2022/05/05 07:23:57;;;;;;;16.07;10.37;;;15.00;99.90;;;;;;10338263;28;20354;-71
2022/05/05 07:28:58;;;;;;;17.57;10.87;;;15.10;99.90;;;;;;10336939;28;20235;-70
2022/05/05 07:33:59;;;;;;;13.60;11.17;;;15.00;99.90;;;;;;10377204;28;20258;-69
2022/05/05 07:39:00;;;;;;;13.93;10.03;;;15.00;99.90;;;;;;10358441;28;20235;-71
2022/05/05 07:44:01;;;;;;;13.93;10.07;;;15.20;99.90;;;;;;10351476;28;20225;-70
2022/05/05 07:49:05;;;;;;;14.23;10.13;;;15.60;99.90;;;;;;10364249;28;20226;-69
2022/05/05 07:59:26;;;;;;;13.50;8.07;;;16.00;99.90;;;;;;10354348;28;20219;-70
2022/05/05 08:04:28;;;;;;;15.37;9.27;;;16.30;99.90;;;;;;10354941;28;20318;-70
2022/05/05 08:09:36;;;;;;;15.02;13.02;;;16.40;99.90;;;;;;10357926;28;20453;-70
2022/05/05 08:14:37;;;;;;;13.20;9.83;;;16.40;99.90;;;;;;10359084;28;20638;-70
2022/05/05 08:19:37;;;;;;;15.00;10.70;;;16.40;99.90;;;;;;10368944;28;20305;-69
2022/05/05 08:29:57;;;;;;;20.27;12.80;;;16.20;99.90;;;;;;10362569;28;20227;-69
2022/05/05 08:34:58;;;;;;;12.30;10.90;;;16.10;99.90;;;;;;10375809;28;20224;-71
2022/05/05 08:39:58;;;;;;;13.47;10.67;;;16.10;99.90;;;;;;10370482;28;20223;-71
2022/05/05 08:44:59;;;;;;;13.83;10.53;;;16.30;99.90;;;;;;10353843;28;20217;-70
2022/05/05 08:50:01;;;;;;;13.57;11.47;;;16.60;99.90;;;;;;10368623;28;20223;-70
2022/05/05 08:55:03;;;;;;;16.93;11.60;;;16.80;99.90;;;;;;10357144;28;20220;-70
2022/05/05 09:00:04;;;;;;;15.30;12.73;;;16.80;99.90;;;;;;10368148;28;20235;-71
2022/05/05 09:05:06;;;;;;;14.83;11.47;;;16.80;99.90;;;;;;10362531;28;20226;-70
2022/05/05 09:10:07;;;;;;;19.87;12.60;;;16.90;99.90;;;;;;10369651;28;20204;-71
2022/05/05 09:15:11;;;;;;;13.63;10.63;;;17.20;99.90;;;;;;10364104;28;20184;-70
2022/05/05 09:20:11;;;;;;;14.83;12.63;;;17.50;99.90;;;;;;10367424;28;20192;-72
2022/05/05 09:25:12;;;;;;;18.00;11.40;;;17.80;99.90;;;;;;10367434;28;20193;-71
2022/05/05 09:30:14;;;;;;;15.67;10.83;;;17.90;99.90;;;;;;10368139;28;20221;-71
2022/05/05 09:35:15;;;;;;;12.87;10.77;;;17.50;99.90;;;;;;10363860;28;20210;-71
2022/05/05 09:40:18;;;;;;;13.13;9.43;;;17.40;99.90;;;;;;10370786;28;20192;-71
2022/05/05 09:45:22;;;;;;;15.60;11.40;;;17.00;99.90;;;;;;10343974;28;20622;-71
2022/05/05 09:50:26;;;;;;;15.43;10.57;;;17.00;99.90;;;;;;10359153;28;20576;-70
2022/05/05 10:00:59;;;;;;;18.67;11.50;;;16.90;99.90;;;;;;10356989;28;20216;-70
2022/05/05 10:06:04;;;;;;;16.50;11.77;;;16.80;99.90;;;;;;10365407;28;20542;-72
2022/05/05 10:11:08;;;;;;;18.40;11.70;;;16.90;99.90;;;;;;10371078;28;20334;-70
2022/05/05 10:16:09;;;;;;;15.60;10.33;;;16.90;99.90;;;;;;10353392;28;20231;-70
2022/05/05 10:21:35;;;;;;;16.17;10.97;;;17.00;99.90;;;;;;10369141;28;20634;-70
2022/05/05 10:26:37;;;;;;;16.27;10.80;;;17.20;99.90;;;;;;10362123;28;20223;-69
2022/05/05 10:31:42;;;;;;;18.07;11.00;;;17.40;99.90;;;;;;10351906;28;20229;-70
2022/05/05 10:36:58;;;;;;;15.50;9.57;;;18.10;99.90;;;;;;10359286;28;20712;-70
2022/05/05 10:42:31;;;;;;;15.27;9.97;;;19.30;99.90;;;;;;10349118;28;20252;-71
2022/05/05 10:47:58;;;;;;;13.20;7.80;;;23.10;99.50;;;;;;10341338;28;20221;-71
2022/05/05 10:52:59;;;;;;;12.57;7.57;;;24.50;91.30;;;;;;10349029;28;20233;-71
2022/05/05 10:58:00;;;;;;;14.43;8.30;;;24.90;84.50;;;;;;10351268;28;20924;-71
2022/05/05 11:03:01;;;;;;;14.87;9.47;;;23.90;84.00;;;;;;10360861;28;20222;-70
2022/05/05 11:08:10;;;;;;;16.63;9.50;;;22.20;86.20;;;;;;10352057;28;20224;-70
2022/05/05 11:13:34;;;;;;;16.43;9.40;;;22.30;87.30;;;;;;10352718;28;20233;-71
2022/05/05 11:24:09;;;;;;;12.83;7.47;;;23.30;83.70;;;;;;10361260;28;20301;-72
2022/05/05 11:29:16;;;;;;;10.87;6.43;;;24.50;76.60;;;;;;10357642;28;20295;-71
2022/05/05 11:34:31;;;;;;;13.10;8.03;;;25.80;68.70;;;;;;10373675;28;20592;-70
2022/05/05 11:39:36;;;;;;;12.13;8.07;;;25.40;60.20;;;;;;10351355;28;20221;-71
2022/05/05 11:44:40;;;;;;;14.20;8.73;;;23.80;62.60;;;;;;10374245;28;20647;-72
2022/05/05 11:49:46;;;;;;;8.90;6.47;;;22.50;70.50;;;;;;10373219;28;20232;-70
2022/05/05 11:54:50;;;;;;;13.43;7.67;;;22.90;72.00;;;;;;10357602;28;20210;-71
2022/05/05 12:05:10;;;;;;;13.10;9.37;;;22.50;70.30;;;;;;10370417;28;20221;-72
2022/05/05 12:10:14;;;;;;;13.60;8.60;;;22.20;70.00;;;;;;10374733;28;20201;-72
2022/05/05 12:15:16;;;;;;;16.33;7.97;;;21.80;70.80;;;;;;10355685;28;20218;-71
2022/05/05 12:20:21;;;;;;;14.97;5.97;;;21.70;70.80;;;;;;10366382;28;20178;-71
2022/05/05 12:25:23;;;;;;;14.33;6.47;;;22.30;67.20;;;;;;10364746;28;20192;-72
2022/05/05 12:30:37;;;;;;;10.80;6.57;;;22.60;62.20;;;;;;10355909;28;20471;-71
2022/05/05 12:35:42;;;;;;;11.67;7.30;;;22.30;65.00;;;;;;10363605;28;20598;-71
2022/05/05 12:40:46;;;;;;;11.53;6.80;;;22.20;64.40;;;;;;10370118;28;20267;-71
2022/05/05 12:45:48;;;;;;;10.20;6.27;;;21.80;68.70;;;;;;10372059;28;20228;-71
2022/05/05 12:50:51;;;;;;;10.57;6.70;;;21.70;65.30;;;;;;10366605;28;20810;-71
2022/05/05 13:01:29;;;;;;;12.40;6.90;;;21.70;67.90;;;;;;10363012;28;20213;-72
2022/05/05 13:06:30;;;;;;;8.90;5.90;;;21.60;66.30;;;;;;10348437;28;20229;-71
2022/05/05 13:11:33;;;;;;;8.80;4.37;;;22.00;66.40;;;;;;10356401;28;20232;-71
2022/05/05 13:16:34;;;;;;;11.60;4.57;;;22.30;60.90;;;;;;10344310;28;20218;-71
2022/05/05 13:21:36;;;;;;;10.53;5.20;;;22.10;60.00;;;;;;10363301;28;20221;-71
2022/05/05 13:26:40;;;;;;;9.23;4.47;;;21.50;62.10;;;;;;10363113;28;20260;-70
2022/05/05 13:31:41;;;;;;;11.80;3.90;;;21.30;64.00;;;;;;10361435;28;20237;-71
2022/05/05 13:36:42;;;;;;;9.00;4.20;;;21.20;64.70;;;;;;10341735;28;20231;-71
2022/05/05 13:41:43;;;;;;;5.07;3.13;;;20.80;60.80;;;;;;10360314;28;20303;-70
2022/05/05 13:46:45;;;;;;;5.93;3.30;;;20.90;62.20;;;;;;10367683;28;20367;-72
2022/05/05 13:51:45;;;;;;;7.70;2.47;;;20.70;60.20;;;;;;10367084;28;20265;-70
2022/05/05 13:56:46;;;;;;;5.97;3.07;;;20.70;57.60;;;;;;10348061;28;20775;-72
2022/05/05 14:01:46;;;;;;;5.67;3.13;;;20.30;58.70;;;;;;10367708;28;20224;-71
2022/05/05 14:06:47;;;;;;;8.07;3.00;;;19.90;61.00;;;;;;10364564;28;20780;-71
2022/05/05 14:12:12;;;;;;;7.60;3.67;;;19.60;64.30;;;;;;10365145;28;20646;-71
2022/05/05 14:17:22;;;;;;;4.90;2.80;;;19.60;65.70;;;;;;10355738;28;20223;-73
2022/05/05 14:22:33;;;;;;;8.40;3.20;;;19.50;66.50;;;;;;10348579;28;20220;-71
2022/05/05 14:27:34;;;;;;;10.37;3.77;;;19.40;67.80;;;;;;10365772;28;20646;-72
2022/05/05 14:32:35;;;;;;;5.47;3.27;;;19.50;69.10;;;;;;10358498;28;20308;-71
2022/05/05 14:37:36;;;;;;;7.17;3.93;;;19.50;68.50;;;;;;10346180;28;20217;-71
2022/05/05 14:42:36;;;;;;;7.67;3.80;;;19.60;68.30;;;;;;10351888;28;20221;-71
2022/05/05 14:47:40;;;;;;;6.90;2.70;;;19.70;67.90;;;;;;10351451;28;20225;-71
2022/05/05 14:52:41;;;;;;;7.07;3.03;;;19.80;69.30;;;;;;10344713;28;20815;-71
2022/05/05 14:57:45;;;;;;;8.27;3.33;;;20.00;65.70;;;;;;10355662;28;20222;-70
2022/05/05 15:02:45;;;;;;;5.90;3.53;;;20.00;64.00;;;;;;10342223;28;20231;-71
2022/05/05 15:07:46;;;;;;;3.13;2.20;;;20.00;64.00;;;;;;10350981;28;20219;-70
2022/05/05 15:12:46;;;;;;;5.03;3.23;;;20.00;64.50;;;;;;10354482;28;20225;-70
2022/05/05 15:17:47;;;;;;;7.57;3.70;;;20.20;64.70;;;;;;10366489;28;20294;-70
2022/05/05 15:22:48;;;;;;;5.87;3.40;;;20.20;64.10;;;;;;10364954;28;20249;-70
2022/05/05 15:27:48;;;;;;;6.03;3.70;;;20.20;65.20;;;;;;10342129;28;20267;-71
2022/05/05 15:32:49;;;;;;;8.63;3.87;;;20.20;64.20;;;;;;10346883;28;20357;-70
2022/05/05 15:37:49;;;;;;;9.77;3.80;;;19.90;65.80;;;;;;10363739;28;20311;-71
2022/05/05 15:42:50;;;;;;;7.83;3.63;;;19.80;66.80;;;;;;10362486;28;20233;-72
2022/05/05 15:47:52;;;;;;;8.57;3.87;;;19.60;67.00;;;;;;10340267;28;20213;-72
2022/05/05 15:52:53;;;;;;;5.33;3.57;;;19.50;68.90;;;;;;10362017;28;20229;-71
2022/05/05 15:57:54;;;;;;;10.73;4.07;;;19.40;69.80;;;;;;10361762;28;20722;-70
2022/05/05 16:02:56;;;;;;;4.33;3.20;;;19.40;69.60;;;;;;10345465;28;20312;-70
2022/05/05 16:07:56;;;;;;;3.80;3.00;;;19.30;70.20;;;;;;10363132;28;20247;-70
2022/05/05 16:13:00;;;;;;;10.97;3.90;;;19.30;70.80;;;;;;10360382;28;20329;-68
2022/05/05 16:18:01;;;;;;;8.17;4.07;;;19.20;72.00;;;;;;10365088;28;20225;-71
2022/05/05 16:23:02;;;;;;;10.43;4.10;;;19.20;71.80;;;;;;10370817;28;20377;-71
2022/05/05 16:33:23;;;;;;;6.37;3.63;;;19.00;72.80;;;;;;10371743;28;20237;-71
2022/05/05 16:38:25;;;;;;;7.50;3.40;;;19.00;74.10;;;;;;10370527;28;20232;-71
2022/05/05 16:43:25;;;;;;;9.20;4.20;;;18.90;75.60;;;;;;10370018;28;20317;-71
2022/05/05 16:48:26;;;;;;;12.07;4.30;;;18.80;76.20;;;;;;10370775;28;20680;-70
2022/05/05 16:53:34;;;;;;;5.87;3.90;;;18.80;77.10;;;;;;10365739;28;20278;-71
2022/05/05 16:58:34;;;;;;;6.73;3.80;;;18.70;76.90;;;;;;10365259;28;20711;-71
2022/05/05 17:03:35;;;;;;;8.17;4.07;;;18.70;77.80;;;;;;10341075;28;20224;-70
2022/05/05 17:08:36;;;;;;;6.30;3.50;;;18.70;77.60;;;;;;10343229;28;20733;-72
2022/05/05 17:13:36;;;;;;;7.60;3.50;;;18.70;78.00;;;;;;10370924;28;20311;-71
2022/05/05 17:18:37;;;;;;;6.40;3.03;;;18.70;77.00;;;;;;10365666;28;20273;-71
2022/05/05 17:23:37;;;;;;;4.73;3.30;;;18.60;77.40;;;;;;10367190;28;20219;-72
2022/05/05 17:28:38;;;;;;;7.37;3.13;;;18.50;77.10;;;;;;10368065;28;20295;-71
2022/05/05 17:33:40;;;;;;;6.40;3.40;;;18.40;78.30;;;;;;10369469;28;20221;-70
2022/05/05 17:38:40;;;;;;;3.93;3.00;;;18.40;79.00;;;;;;10367474;28;20228;-71
2022/05/05 17:43:41;;;;;;;7.43;3.50;;;18.40;78.90;;;;;;10367766;28;20228;-71
2022/05/05 17:54:01;;;;;;;4.80;3.17;;;18.30;80.70;;;;;;10366103;28;20327;-70
2022/05/05 17:59:01;;;;;;;5.20;3.23;;;18.20;80.50;;;;;;10351854;28;20324;-71
2022/05/05 18:04:03;;;;;;;7.13;3.23;;;18.10;82.40;;;;;;10367047;28;20239;-71
2022/05/05 18:09:03;;;;;;;4.47;2.63;;;18.00;84.30;;;;;;10363319;28;20233;-72
2022/05/05 18:14:04;;;;;;;7.47;3.70;;;17.80;86.40;;;;;;10366366;28;20239;-71
2022/05/05 18:19:04;;;;;;;8.43;3.70;;;17.60;87.90;;;;;;10351259;28;20227;-72
2022/05/05 18:24:05;;;;;;;6.03;3.23;;;17.50;89.00;;;;;;10367904;28;20310;-71
2022/05/05 18:29:06;;;;;;;5.10;2.70;;;17.30;90.10;;;;;;10366178;28;20753;-70
2022/05/05 18:34:07;;;;;;;8.87;3.80;;;17.20;90.80;;;;;;10369596;28;20224;-71
2022/05/05 18:39:07;;;;;;;6.03;2.83;;;17.10;91.50;;;;;;10349191;28;20216;-72
2022/05/05 18:44:08;;;;;;;7.17;3.17;;;17.00;92.30;;;;;;10364954;28;20229;-71
2022/05/05 18:49:09;;;;;;;4.30;3.10;;;16.90;93.00;;;;;;10366807;28;20297;-72
2022/05/05 18:54:10;;;;;;;9.00;4.00;;;16.90;93.60;;;;;;10366133;28;20659;-71
2022/05/05 18:59:11;;;;;;;9.00;3.67;;;16.80;94.40;;;;;;10366472;28;20241;-71
2022/05/05 19:04:12;;;;;;;6.13;3.30;;;16.80;95.40;;;;;;10366391;28;20734;-70
2022/05/05 19:09:13;;;;;;;7.23;4.40;;;16.80;96.60;;;;;;10365647;28;20230;-71
2022/05/05 19:14:15;;;;;;;7.93;4.03;;;16.70;96.90;;;;;;10368259;28;20249;-70
2022/05/05 19:19:18;;;;;;;9.37;5.03;;;16.70;96.90;;;;;;10345518;28;20217;-71
2022/05/05 19:24:19;;;;;;;9.57;5.10;;;16.60;96.80;;;;;;10367104;28;20222;-71
2022/05/05 19:29:19;;;;;;;11.30;5.10;;;16.60;96.80;;;;;;10363511;28;20644;-70
2022/05/05 19:34:20;;;;;;;10.40;5.03;;;16.60;96.90;;;;;;10363900;28;20226;-70
2022/05/05 19:39:22;;;;;;;8.60;5.70;;;16.60;97.20;;;;;;10364685;28;20685;-70
2022/05/05 19:44:22;;;;;;;12.33;5.77;;;16.50;97.60;;;;;;10357900;28;20226;-70
2022/05/05 19:49:23;;;;;;;9.70;5.30;;;16.40;98.00;;;;;;10370081;28;20233;-69
2022/05/05 19:54:25;;;;;;;8.30;4.90;;;16.40;98.60;;;;;;10369244;28;20224;-70
2022/05/05 20:10:05;;;;;;;12.07;5.67;;;16.30;99.90;;;;;;10360989;28;20688;-71
2022/05/05 20:15:07;;;;;;;11.93;6.20;;;16.30;99.90;;;;;;10371927;28;20191;-72
2022/05/05 20:20:09;;;;;;;9.00;6.10;;;16.20;99.90;;;;;;10356510;28;20338;-72
2022/05/05 20:25:09;;;;;;;12.27;7.60;;;16.20;99.90;;;;;;10372061;28;20194;-72
2022/05/05 20:30:14;;;;;;;14.10;8.37;;;16.10;99.90;;;;;;10371406;28;20625;-72
2022/05/05 20:35:14;;;;;;;10.50;5.13;;;16.10;99.90;;;;;;10372446;28;20174;-71
2022/05/05 20:40:15;;;;;;;8.63;4.53;;;16.00;99.90;;;;;;10371133;28;20187;-71
2022/05/05 20:45:16;;;;;;;9.20;5.57;;;16.00;99.90;;;;;;10370893;28;20241;-70
2022/05/05 20:50:19;;;;;;;9.83;5.20;;;15.90;99.90;;;;;;10372866;28;20207;-72
2022/05/05 20:55:21;;;;;;;9.13;4.87;;;15.90;99.90;;;;;;10364892;28;20181;-71
2022/05/05 21:00:22;;;;;;;8.40;5.20;;;15.80;99.90;;;;;;10367866;28;20189;-71
2022/05/05 21:05:23;;;;;;;13.50;9.50;;;15.80;99.90;;;;;;10353832;28;20201;-71
2022/05/05 21:10:24;;;;;;;9.40;6.47;;;15.70;99.90;;;;;;10371274;28;21106;-69
2022/05/05 21:15:25;;;;;;;8.40;5.37;;;15.60;99.90;;;;;;10371971;28;20233;-72
2022/05/05 21:25:52;;;;;;;10.60;6.90;;;15.40;99.90;;;;;;10360820;28;20220;-72
2022/05/05 21:30:53;;;;;;;8.40;6.53;;;15.30;99.90;;;;;;10370528;28;20232;-72
2022/05/05 21:35:53;;;;;;;8.27;5.90;;;15.20;99.90;;;;;;10353864;28;20223;-72
2022/05/05 21:40:54;;;;;;;7.80;6.00;;;15.20;99.90;;;;;;10369063;28;20230;-72
2022/05/05 21:45:56;;;;;;;9.03;5.63;;;15.20;99.90;;;;;;10367272;28;20228;-73
2022/05/05 21:50:57;;;;;;;10.20;6.53;;;15.20;99.90;;;;;;10366766;28;20346;-72
2022/05/05 21:55:57;;;;;;;8.73;5.97;;;15.20;99.90;;;;;;10367230;28;20266;-72
2022/05/05 22:00:58;;;;;;;9.00;5.80;;;15.20;99.90;;;;;;10351330;28;20240;-72
2022/05/05 22:06:01;;;;;;;14.27;6.30;;;15.10;99.90;;;;;;10369219;28;20232;-72
2022/05/05 22:11:04;;;;;;;9.70;5.97;;;15.00;99.90;;;;;;10367924;28;20225;-70
2022/05/05 22:16:05;;;;;;;7.83;5.63;;;14.80;99.90;;;;;;10352102;28;20225;-72
2022/05/05 22:21:08;;;;;;;6.90;5.70;;;14.70;99.90;;;;;;10369755;28;20247;-71
2022/05/05 22:26:08;;;;;;;7.13;5.13;;;14.60;99.90;;;;;;10369815;28;20584;-71
2022/05/05 22:31:09;;;;;;;7.63;5.40;;;14.40;99.90;;;;;;10369140;28;20233;-72
2022/05/05 22:36:09;;;;;;;7.90;6.70;;;14.30;99.90;;;;;;10356447;28;20226;-72
2022/05/05 22:46:29;;;;;;;7.10;6.03;;;14.10;99.90;;;;;;10366928;28;20704;-72
2022/05/05 22:51:30;;;;;;;10.33;5.53;;;14.10;99.90;;;;;;10367896;28;20229;-71
2022/05/05 22:56:31;;;;;;;6.23;5.40;;;14.10;99.90;;;;;;10358761;28;20232;-72
2022/05/05 23:01:32;;;;;;;7.73;4.90;;;14.00;99.90;;;;;;10367458;28;20248;-71
2022/05/05 23:06:32;;;;;;;7.90;5.20;;;14.00;99.90;;;;;;10366556;28;20260;-72
2022/05/05 23:11:34;;;;;;;8.80;5.07;;;14.00;99.90;;;;;;10366789;28;20324;-71
2022/05/05 23:16:35;;;;;;;5.33;4.43;;;13.90;99.90;;;;;;10350010;28;20228;-71
2022/05/05 23:21:35;;;;;;;6.80;5.57;;;13.80;99.90;;;;;;10365385;28;20247;-71
2022/05/05 23:26:36;;;;;;;11.17;6.70;;;13.70;99.90;;;;;;10374564;28;20221;-72
2022/05/05 23:31:37;;;;;;;8.63;6.43;;;13.70;99.90;;;;;;10376438;28;20240;-72
2022/05/05 23:36:49;;;;;;;8.00;5.37;;;13.70;99.90;;;;;;10358660;28;20271;-71
2022/05/05 23:41:49;;;;;;;8.00;5.10;;;13.60;99.90;;;;;;10371143;28;20222;-72
2022/05/05 23:46:50;;;;;;;6.33;5.30;;;13.60;99.90;;;;;;10356846;28;20237;-71
2022/05/05 23:51:52;;;;;;;7.83;4.67;;;13.50;99.90;;;;;;10358003;28;20234;-72
2022/05/05 23:56:54;;;;;;;6.10;5.50;;;13.50;99.90;;;;;;10372758;28;20366;-70
